Time,TemperatureF,DewpointF,PressureIn,WindDirection,WindDirectionDegrees,WindSpeedMPH,WindSpeedGustMPH,Humidity,HourlyPrecipIn,Conditions,Clouds,dailyrainin,SoftwareType,DateUTC
2013-08-21 00:02:00,72.0,69.0,-100.00,SSW,194,6.0,10.0,91,0.00,,,0.00,,2013-08-21 05:02:00,
2013-08-21 00:43:00,73.0,69.0,-100.00,SSW,194,7.0,12.0,88,0.00,,,0.00,,2013-08-21 05:43:00,
2013-08-21 00:52:00,73.0,69.0,-100.00,SSW,194,7.0,12.0,88,0.00,,,0.00,,2013-08-21 05:52:00,
2013-08-21 01:02:00,73.0,69.0,-100.00,SSW,194,7.0,12.0,88,0.00,,,0.00,,2013-08-21 06:02:00,
2013-08-21 01:42:00,70.0,68.0,-100.00,SSW,193,8.0,11.0,95,0.00,,,0.00,,2013-08-21 06:42:00,
2013-08-21 01:52:00,70.0,68.0,-100.00,SSW,193,8.0,11.0,95,0.00,,,0.00,,2013-08-21 06:52:00,
2013-08-21 02:01:00,70.0,68.0,-100.00,SSW,193,8.0,11.0,95,0.00,,,0.00,,2013-08-21 07:01:00,
2013-08-21 02:42:00,70.0,68.0,-100.00,SSW,194,8.0,13.0,94,0.00,,,-99.99,,2013-08-21 07:42:00,
2013-08-21 02:53:00,70.0,68.0,-100.00,SSW,194,8.0,13.0,94,0.00,,,-99.99,,2013-08-21 07:53:00,
2013-08-21 03:03:00,70.0,68.0,-100.00,SSW,194,8.0,13.0,94,0.00,,,-99.99,,2013-08-21 08:03:00,
2013-08-21 03:43:00,70.0,68.0,-100.00,South,191,7.0,11.0,93,0.00,,,0.00,,2013-08-21 08:43:00,
2013-08-21 03:53:00,70.0,68.0,-100.00,South,191,7.0,11.0,93,0.00,,,0.00,,2013-08-21 08:53:00,
2013-08-21 04:01:00,70.0,68.0,-100.00,South,191,7.0,11.0,93,0.00,,,0.00,,2013-08-21 09:01:00,
2013-08-21 04:43:00,68.0,67.0,-100.00,SSW,205,5.0,10.0,97,0.00,,,0.00,,2013-08-21 09:43:00,
2013-08-21 04:54:00,68.0,67.0,-100.00,SSW,205,5.0,10.0,97,0.00,,,0.00,,2013-08-21 09:54:00,
2013-08-21 05:03:00,68.0,67.0,-100.00,SSW,205,5.0,10.0,97,0.00,,,0.00,,2013-08-21 10:03:00,
2013-08-21 05:43:00,67.0,67.0,-100.00,SSW,196,6.0,10.0,100,0.00,,,0.00,,2013-08-21 10:43:00,
2013-08-21 05:52:00,67.0,67.0,-100.00,SSW,196,6.0,10.0,100,0.00,,,0.00,,2013-08-21 10:52:00,
2013-08-21 06:03:00,67.0,67.0,-100.00,SSW,196,6.0,10.0,100,0.00,,,0.00,,2013-08-21 11:03:00,
2013-08-21 06:42:00,67.0,67.0,-100.00,SSW,194,7.0,11.0,100,0.00,,,0.00,,2013-08-21 11:42:00,
2013-08-21 06:53:00,67.0,67.0,-100.00,SSW,194,7.0,11.0,100,0.00,,,0.00,,2013-08-21 11:53:00,
2013-08-21 07:01:00,67.0,67.0,-100.00,SSW,194,7.0,11.0,100,0.00,,,0.00,,2013-08-21 12:01:00,
2013-08-21 07:42:00,69.0,68.0,-100.00,SSW,197,5.0,12.0,98,0.00,,,0.00,,2013-08-21 12:42:00,
2013-08-21 07:52:00,69.0,68.0,-100.00,SSW,197,5.0,12.0,98,0.00,,,0.00,,2013-08-21 12:52:00,
2013-08-21 08:02:00,69.0,68.0,-100.00,SSW,197,5.0,12.0,98,0.00,,,0.00,,2013-08-21 13:02:00,
2013-08-21 08:42:00,73.0,69.0,-100.00,SSW,202,6.0,10.0,87,0.00,,,0.00,,2013-08-21 13:42:00,
2013-08-21 08:52:00,73.0,69.0,-100.00,SSW,202,6.0,10.0,87,0.00,,,0.00,,2013-08-21 13:52:00,
2013-08-21 09:02:00,73.0,69.0,-100.00,SSW,202,6.0,10.0,87,0.00,,,0.00,,2013-08-21 14:02:00,
2013-08-21 09:42:00,76.0,69.0,-100.00,SSW,212,7.0,12.0,79,0.00,,,0.00,,2013-08-21 14:42:00,
2013-08-21 09:52:00,76.0,69.0,-100.00,SSW,212,7.0,12.0,79,0.00,,,0.00,,2013-08-21 14:52:00,
2013-08-21 10:01:00,76.0,69.0,-100.00,SSW,212,7.0,12.0,79,0.00,,,0.00,,2013-08-21 15:01:00,
2013-08-21 10:43:00,81.0,71.0,-100.00,SSW,207,8.0,13.0,72,0.00,,,0.00,,2013-08-21 15:43:00,
2013-08-21 10:55:00,81.0,71.0,-100.00,SSW,207,8.0,13.0,72,0.00,,,0.00,,2013-08-21 15:55:00,
2013-08-21 11:04:00,81.0,71.0,-100.00,SSW,207,8.0,13.0,72,0.00,,,0.00,,2013-08-21 16:04:00,
2013-08-21 11:43:00,82.0,71.0,-100.00,SSW,201,9.0,14.0,70,0.00,,,0.00,,2013-08-21 16:43:00,
2013-08-21 11:53:00,82.0,71.0,-100.00,SSW,201,9.0,14.0,70,0.00,,,0.00,,2013-08-21 16:53:00,
2013-08-21 12:04:00,82.0,71.0,-100.00,SSW,201,9.0,14.0,70,0.00,,,0.00,,2013-08-21 17:04:00,
2013-08-21 12:43:00,84.0,71.0,-100.00,SSW,207,9.0,14.0,66,0.00,,,0.00,,2013-08-21 17:43:00,
2013-08-21 12:53:00,84.0,71.0,-100.00,SSW,207,9.0,14.0,66,0.00,,,0.00,,2013-08-21 17:53:00,
2013-08-21 13:02:00,84.0,71.0,-100.00,SSW,207,9.0,14.0,66,0.00,,,0.00,,2013-08-21 18:02:00,
2013-08-21 13:42:00,86.0,71.0,-100.00,SSW,200,11.0,18.0,62,0.00,,,0.00,,2013-08-21 18:42:00,
2013-08-21 13:52:00,86.0,71.0,-100.00,SSW,200,11.0,18.0,62,0.00,,,0.00,,2013-08-21 18:52:00,
2013-08-21 14:01:00,86.0,71.0,-100.00,SSW,200,11.0,18.0,62,0.00,,,0.00,,2013-08-21 19:01:00,
2013-08-21 14:42:00,88.0,72.0,-100.00,South,186,13.0,19.0,60,0.00,,,0.00,,2013-08-21 19:42:00,
2013-08-21 14:52:00,88.0,72.0,-100.00,South,186,13.0,19.0,60,0.00,,,0.00,,2013-08-21 19:52:00,
2013-08-21 15:03:00,88.0,72.0,-100.00,South,186,13.0,19.0,60,0.00,,,0.00,,2013-08-21 20:03:00,
2013-08-21 15:42:00,90.0,73.0,-100.00,SSW,205,10.0,20.0,58,0.00,,,0.00,,2013-08-21 20:42:00,
2013-08-21 15:52:00,90.0,73.0,-100.00,SSW,205,10.0,20.0,58,0.00,,,0.00,,2013-08-21 20:52:00,
2013-08-21 16:02:00,90.0,73.0,-100.00,SSW,205,10.0,20.0,58,0.00,,,0.00,,2013-08-21 21:02:00,
2013-08-21 16:45:00,86.0,73.0,-100.00,SW,227,8.0,19.0,65,0.00,,,0.00,,2013-08-21 21:45:00,
2013-08-21 16:55:00,86.0,73.0,-100.00,SW,227,8.0,19.0,65,0.00,,,0.00,,2013-08-21 21:55:00,
2013-08-21 17:04:00,86.0,73.0,-100.00,SW,227,8.0,19.0,65,0.00,,,0.00,,2013-08-21 22:04:00,
2013-08-21 17:44:00,84.0,72.0,-100.00,WSW,247,9.0,21.0,67,0.00,,,0.00,,2013-08-21 22:44:00,
2013-08-21 17:53:00,84.0,72.0,-100.00,WSW,247,9.0,21.0,67,0.00,,,0.00,,2013-08-21 22:53:00,
2013-08-21 18:04:00,84.0,72.0,-100.00,WSW,247,9.0,21.0,67,0.00,,,0.00,,2013-08-21 23:04:00,
2013-08-21 18:43:00,81.0,73.0,-100.00,SW,232,7.0,19.0,76,0.00,,,0.00,,2013-08-21 23:43:00,
2013-08-21 18:53:00,81.0,73.0,-100.00,SW,232,7.0,19.0,76,0.00,,,0.00,,2013-08-21 23:53:00,
2013-08-21 19:02:00,81.0,73.0,-100.00,SW,232,7.0,19.0,76,0.00,,,0.00,,2013-08-22 00:02:00,
2013-08-21 19:42:00,69.0,67.0,-100.00,NNE,22,13.0,27.0,94,0.01,,,0.01,,2013-08-22 00:42:00,
2013-08-21 19:52:00,69.0,67.0,-100.00,NNE,22,13.0,27.0,94,0.01,,,0.01,,2013-08-22 00:52:00,
2013-08-21 20:02:00,69.0,67.0,-100.00,NNE,22,13.0,27.0,94,0.01,,,0.01,,2013-08-22 01:02:00,
2013-08-21 20:42:00,67.0,67.0,-100.00,ESE,120,4.0,20.0,100,0.11,,,0.12,,2013-08-22 01:42:00,
2013-08-21 20:52:00,67.0,67.0,-100.00,ESE,120,4.0,20.0,100,0.11,,,0.12,,2013-08-22 01:52:00,
2013-08-21 21:03:00,67.0,67.0,-100.00,ESE,120,4.0,20.0,100,0.11,,,0.12,,2013-08-22 02:03:00,
2013-08-21 21:52:00,66.0,66.0,-100.00,NE,53,0.0,8.0,100,0.00,,,0.12,,2013-08-22 02:52:00,
2013-08-21 22:02:00,66.0,66.0,-100.00,NE,53,0.0,8.0,100,0.00,,,0.12,,2013-08-22 03:02:00,
2013-08-21 22:45:00,64.0,64.0,-100.00,SW,215,1.0,5.0,100,0.00,,,0.12,,2013-08-22 03:45:00,
2013-08-21 22:54:00,64.0,64.0,-100.00,SW,215,1.0,5.0,100,0.00,,,0.12,,2013-08-22 03:54:00,
2013-08-21 23:04:00,64.0,64.0,-100.00,SW,215,1.0,5.0,100,0.00,,,0.12,,2013-08-22 04:04:00,
2013-08-21 23:44:00,62.0,62.0,-100.00,SSW,207,1.0,3.0,100,0.00,,,0.12,,2013-08-22 04:44:00,
2013-08-21 23:54:00,62.0,62.0,-100.00,SSW,207,1.0,3.0,100,0.00,,,0.12,,2013-08-22 04:54:00,